createdAt,value
2023-04-09T00:01:25.989Z,9.98
2023-04-09T00:03:53.407Z,9.96
2023-04-09T00:06:21.198Z,9.95
2023-04-09T00:08:48.162Z,9.94
2023-04-09T00:11:22.862Z,9.91
2023-04-09T00:13:51.259Z,9.87
2023-04-09T00:16:18.559Z,9.83
2023-04-09T00:18:46.759Z,9.79
2023-04-09T00:21:14.107Z,9.76
2023-04-09T00:23:43.825Z,9.74
2023-04-09T00:26:11.150Z,9.74
2023-04-09T00:28:38.146Z,9.74
2023-04-09T00:31:06.745Z,9.75
2023-04-09T00:33:34.159Z,9.75
2023-04-09T00:36:02.065Z,9.77
2023-04-09T00:38:29.305Z,9.79
2023-04-09T00:40:56.365Z,9.82
2023-04-09T00:43:27.191Z,9.86
2023-04-09T00:45:54.447Z,9.93
2023-04-09T00:48:22.960Z,9.98
2023-04-09T00:50:50.311Z,10.02
2023-04-09T00:53:17.807Z,10.04
2023-04-09T00:55:46.393Z,10.05
2023-04-09T00:58:16.271Z,10.06
2023-04-09T01:00:43.474Z,10.05
2023-04-09T01:03:11.443Z,10.07
2023-04-09T01:06:02.237Z,10.10
2023-04-09T01:08:49.744Z,10.08
2023-04-09T01:11:43.854Z,10.06
2023-04-09T01:14:28.288Z,10.04
2023-04-09T01:16:57.891Z,10.02
2023-04-09T01:19:34.805Z,10.00
2023-04-09T01:22:01.997Z,10.00
2023-04-09T01:24:55.666Z,9.99
2023-04-09T01:27:35.060Z,9.98
2023-04-09T01:30:02.717Z,9.95
2023-04-09T01:32:33.784Z,9.93
2023-04-09T01:35:01.894Z,9.93
2023-04-09T01:37:29.316Z,9.92
2023-04-09T01:39:57.603Z,9.90
2023-04-09T01:42:24.670Z,9.88
2023-04-09T01:44:52.767Z,9.85
2023-04-09T01:47:19.917Z,9.83
2023-04-09T01:49:46.876Z,9.83
2023-04-09T01:52:14.113Z,9.81
2023-04-09T01:54:41.232Z,9.78
2023-04-09T01:57:08.625Z,9.74
2023-04-09T01:59:37.010Z,9.73
2023-04-09T02:02:12.507Z,9.73
2023-04-09T02:04:41.908Z,9.70
2023-04-09T02:07:27.824Z,9.67
2023-04-09T02:09:55.607Z,9.62
2023-04-09T02:12:23.385Z,9.61
2023-04-09T02:14:53.796Z,9.61
2023-04-09T02:17:21.739Z,9.59
2023-04-09T02:19:49.015Z,9.56
2023-04-09T02:22:16.843Z,9.54
2023-04-09T02:24:44.744Z,9.52
2023-04-09T02:27:12.222Z,9.51
2023-04-09T02:29:40.481Z,9.49
2023-04-09T02:32:07.678Z,9.46
2023-04-09T02:34:36.333Z,9.44
2023-04-09T02:37:03.760Z,9.43
2023-04-09T02:39:31.215Z,9.43
2023-04-09T02:41:58.675Z,9.42
2023-04-09T02:44:27.783Z,9.39
2023-04-09T02:46:56.065Z,9.38
2023-04-09T02:49:23.828Z,9.38
2023-04-09T02:51:51.491Z,9.37
2023-04-09T02:54:21.003Z,9.36
2023-04-09T02:56:48.515Z,9.35
2023-04-09T02:59:15.481Z,9.37
2023-04-09T03:01:46.380Z,9.40
2023-04-09T03:04:13.350Z,9.40
2023-04-09T03:06:40.356Z,9.41
2023-04-09T03:09:10.834Z,9.41
2023-04-09T03:11:37.946Z,9.41
2023-04-09T03:14:04.827Z,9.41
2023-04-09T03:16:32.973Z,9.41
2023-04-09T03:18:59.807Z,9.41
2023-04-09T03:21:27.562Z,9.43
2023-04-09T03:23:54.753Z,9.42
2023-04-09T03:26:22.039Z,9.40
2023-04-09T03:28:49.838Z,9.41
2023-04-09T03:31:17.119Z,9.39
2023-04-09T03:33:44.225Z,9.40
2023-04-09T03:36:11.651Z,9.41
2023-04-09T03:38:53.232Z,9.40
2023-04-09T03:41:26.533Z,9.39
2023-04-09T03:43:54.125Z,9.39
2023-04-09T03:46:25.241Z,9.41
2023-04-09T03:48:52.530Z,9.43
2023-04-09T03:51:20.850Z,9.45
2023-04-09T03:53:56.797Z,9.47
2023-04-09T03:56:24.298Z,9.49
2023-04-09T03:58:51.647Z,9.50
2023-04-09T04:01:22.772Z,9.52
2023-04-09T04:03:54.345Z,9.54
2023-04-09T04:06:26.175Z,9.56
2023-04-09T04:09:13.600Z,9.56
2023-04-09T04:11:48.092Z,9.60
2023-04-09T04:14:16.720Z,9.63
2023-04-09T04:16:45.954Z,9.66
2023-04-09T04:19:16.167Z,9.71
2023-04-09T04:21:46.041Z,9.76
2023-04-09T04:24:14.522Z,9.83
2023-04-09T04:26:42.832Z,9.92
2023-04-09T04:29:10.583Z,9.95
2023-04-09T04:32:08.554Z,9.98
2023-04-09T04:34:37.835Z,10.01
2023-04-09T04:37:15.455Z,10.06
2023-04-09T04:39:45.306Z,10.12
2023-04-09T04:42:15.476Z,10.19
2023-04-09T04:44:43.324Z,10.25
2023-04-09T04:47:33.082Z,10.30
2023-04-09T04:50:01.359Z,10.33
2023-04-09T04:52:30.201Z,10.31
2023-04-09T04:54:57.209Z,10.24
2023-04-09T04:57:24.344Z,10.23
2023-04-09T04:59:51.566Z,10.26
2023-04-09T05:02:18.882Z,10.29
2023-04-09T05:04:56.168Z,10.37
2023-04-09T05:07:31.651Z,10.42
2023-04-09T05:09:58.714Z,10.47
2023-04-09T05:12:36.542Z,10.53
2023-04-09T05:15:05.209Z,10.60
2023-04-09T05:17:32.608Z,10.72
2023-04-09T05:20:00.184Z,10.94
2023-04-09T05:22:33.844Z,11.19
2023-04-09T05:25:04.357Z,11.35
2023-04-09T05:27:31.909Z,11.45
2023-04-09T05:30:01.606Z,11.61
2023-04-09T05:32:30.828Z,11.79
2023-04-09T05:34:57.808Z,12.07
2023-04-09T05:37:27.020Z,12.32
2023-04-09T05:39:55.029Z,12.47
2023-04-09T05:42:22.330Z,12.71
2023-04-09T05:45:10.001Z,13.00
2023-04-09T05:47:45.285Z,13.22
2023-04-09T05:50:19.392Z,13.32
2023-04-09T05:52:50.930Z,13.35
2023-04-09T05:55:18.085Z,13.39
2023-04-09T05:57:48.732Z,13.54
2023-04-09T06:00:16.735Z,13.86
2023-04-09T06:02:45.071Z,14.15
2023-04-09T06:05:12.050Z,14.33
2023-04-09T06:07:44.127Z,14.50
2023-04-09T06:10:11.080Z,14.71
2023-04-09T06:12:39.475Z,14.71
2023-04-09T06:15:07.633Z,14.75
2023-04-09T06:17:38.254Z,14.88
2023-04-09T06:20:06.846Z,15.01
2023-04-09T06:22:41.491Z,15.12
2023-04-09T06:25:08.571Z,15.22
2023-04-09T06:27:35.740Z,15.30
2023-04-09T06:30:08.405Z,15.50
2023-04-09T06:32:46.837Z,15.59
2023-04-09T06:35:18.206Z,15.58
2023-04-09T06:37:45.099Z,15.81
2023-04-09T06:40:12.473Z,15.86
2023-04-09T06:42:39.951Z,15.73
2023-04-09T06:45:17.175Z,15.71
2023-04-09T06:47:44.416Z,15.78
2023-04-09T06:50:11.593Z,15.73
2023-04-09T06:52:38.938Z,15.61
2023-04-09T06:55:06.534Z,15.57
2023-04-09T06:57:34.534Z,15.52
2023-04-09T07:00:01.512Z,15.33
2023-04-09T07:02:31.499Z,14.97
2023-04-09T07:04:58.571Z,14.66
2023-04-09T07:07:26.016Z,14.69
2023-04-09T07:09:53.559Z,15.02
2023-04-09T07:12:33.769Z,15.43
2023-04-09T07:15:10.273Z,15.48
2023-04-09T07:17:37.414Z,15.58
2023-04-09T07:20:06.669Z,15.77
2023-04-09T07:22:33.732Z,15.74
2023-04-09T07:25:04.016Z,15.80
2023-04-09T07:27:31.108Z,15.88
2023-04-09T07:29:58.704Z,15.81
2023-04-09T07:32:27.034Z,15.56
2023-04-09T07:34:55.051Z,15.64
2023-04-09T07:37:22.020Z,15.83
2023-04-09T07:39:51.588Z,15.95
2023-04-09T07:42:18.465Z,15.73
2023-04-09T07:44:45.329Z,15.49
2023-04-09T07:47:18.917Z,15.16
2023-04-09T07:49:47.936Z,15.15
2023-04-09T07:52:14.882Z,15.47
2023-04-09T07:54:48.182Z,15.87
2023-04-09T07:57:15.581Z,16.12
2023-04-09T07:59:42.807Z,16.21
2023-04-09T08:02:15.380Z,16.20
2023-04-09T08:04:43.110Z,16.11
2023-04-09T08:07:10.091Z,15.85
2023-04-09T08:09:40.505Z,15.63
2023-04-09T08:12:07.479Z,15.69
2023-04-09T08:14:35.161Z,15.95
2023-04-09T08:17:02.454Z,16.27
2023-04-09T08:19:30.584Z,16.37
2023-04-09T08:21:58.921Z,16.14
2023-04-09T08:24:26.775Z,15.94
2023-04-09T08:26:54.564Z,15.70
2023-04-09T08:29:25.034Z,15.51
2023-04-09T08:31:53.545Z,15.62
2023-04-09T08:34:22.183Z,15.94
2023-04-09T08:36:51.867Z,16.26
2023-04-09T08:39:20.874Z,16.48
2023-04-09T08:41:48.512Z,16.66
2023-04-09T08:44:15.570Z,16.57
2023-04-09T08:46:43.776Z,16.48
2023-04-09T08:49:13.522Z,16.40
2023-04-09T08:51:44.566Z,16.48
2023-04-09T08:54:11.581Z,16.59
2023-04-09T08:56:38.785Z,16.60
2023-04-09T08:59:05.672Z,16.70
2023-04-09T09:01:34.277Z,16.54
2023-04-09T09:04:05.603Z,16.10
2023-04-09T09:06:38.668Z,15.93
2023-04-09T09:09:16.374Z,15.94
2023-04-09T09:11:47.154Z,15.88
2023-04-09T09:14:18.819Z,15.89
2023-04-09T09:17:03.845Z,15.88
2023-04-09T09:21:27.796Z,15.82
2023-04-09T09:23:55.356Z,15.76
2023-04-09T09:26:30.438Z,15.79
2023-04-09T09:29:01.496Z,15.85
2023-04-09T09:31:28.941Z,15.79
2023-04-09T09:34:08.865Z,15.68
2023-04-09T09:36:37.336Z,15.56
2023-04-09T09:39:10.368Z,15.47
2023-04-09T09:41:46.480Z,15.49
2023-04-09T09:44:30.182Z,15.59
2023-04-09T09:46:57.789Z,15.65
2023-04-09T09:49:24.962Z,15.64
2023-04-09T09:51:52.141Z,15.61
2023-04-09T09:54:19.748Z,15.57
2023-04-09T09:56:46.882Z,15.57
2023-04-09T09:59:22.084Z,15.48
2023-04-09T10:01:53.877Z,15.49
2023-04-09T10:04:21.593Z,15.60
2023-04-09T10:06:48.775Z,15.66
2023-04-09T10:09:16.853Z,15.72
2023-04-09T10:11:45.680Z,15.78
2023-04-09T10:14:18.652Z,15.68
2023-04-09T10:16:46.681Z,15.56
2023-04-09T10:19:15.413Z,15.58
2023-04-09T10:21:48.074Z,15.72
2023-04-09T10:24:19.620Z,15.82
2023-04-09T10:26:47.369Z,15.78
2023-04-09T10:29:16.922Z,15.70
2023-04-09T10:31:56.060Z,15.58
2023-04-09T10:34:27.248Z,15.48
2023-04-09T10:36:58.595Z,15.46
2023-04-09T10:39:30.004Z,15.38
2023-04-09T10:42:04.536Z,15.34
2023-04-09T10:44:36.353Z,15.33
2023-04-09T10:47:08.529Z,15.30
2023-04-09T10:49:42.102Z,15.30
2023-04-09T10:52:12.244Z,15.30
2023-04-09T10:54:46.573Z,15.28
2023-04-09T10:57:21.204Z,15.23
2023-04-09T10:59:50.804Z,15.16
2023-04-09T11:02:40.751Z,15.11
2023-04-09T11:05:29.685Z,15.14
2023-04-09T11:08:03.370Z,15.23
2023-04-09T11:10:41.277Z,15.31
2023-04-09T11:13:18.678Z,15.36
2023-04-09T11:15:47.539Z,15.42
2023-04-09T11:18:28.052Z,15.42
2023-04-09T11:21:16.593Z,15.47
2023-04-09T11:23:53.918Z,15.45
2023-04-09T11:26:28.801Z,15.44
2023-04-09T11:28:58.297Z,15.47
2023-04-09T11:31:29.179Z,15.47
2023-04-09T11:34:17.349Z,15.42
2023-04-09T11:36:49.918Z,15.38
2023-04-09T11:39:17.445Z,15.37
2023-04-09T11:41:52.279Z,15.44
2023-04-09T11:44:24.716Z,15.47
2023-04-09T11:46:58.385Z,15.52
2023-04-09T11:49:25.997Z,15.55
2023-04-09T11:51:53.561Z,15.58
2023-04-09T11:54:21.138Z,15.63
2023-04-09T11:57:07.948Z,15.69
2023-04-09T11:59:39.085Z,15.78
2023-04-09T12:02:26.198Z,15.81
2023-04-09T12:05:02.904Z,15.80
2023-04-09T12:07:34.120Z,15.78
2023-04-09T12:10:08.302Z,15.68
2023-04-09T12:12:47.679Z,15.64
2023-04-09T12:15:21.884Z,15.58
2023-04-09T12:17:51.229Z,15.56
2023-04-09T12:20:29.243Z,15.52
2023-04-09T12:23:06.064Z,15.47
2023-04-09T12:25:41.361Z,15.47
2023-04-09T12:28:11.014Z,15.48
2023-04-09T12:30:39.911Z,15.54
2023-04-09T12:33:10.970Z,15.62
2023-04-09T12:35:39.628Z,15.68
2023-04-09T12:38:06.901Z,15.72
2023-04-09T12:40:35.775Z,15.70
2023-04-09T12:43:03.361Z,15.62
2023-04-09T12:45:32.221Z,15.62
2023-04-09T12:47:59.810Z,15.67
2023-04-09T12:50:30.309Z,15.70
2023-04-09T12:52:57.536Z,15.71
2023-04-09T12:55:24.755Z,15.76
2023-04-09T12:57:52.087Z,15.72
2023-04-09T13:00:24.968Z,15.64
2023-04-09T13:02:53.097Z,15.60
2023-04-09T13:05:23.034Z,15.61
2023-04-09T13:07:50.305Z,15.61
2023-04-09T13:10:17.463Z,15.64
2023-04-09T13:12:44.938Z,15.67
2023-04-09T13:15:13.275Z,15.75
2023-04-09T13:17:42.216Z,15.77
2023-04-09T13:20:11.048Z,15.81
2023-04-09T13:22:43.159Z,15.84
2023-04-09T13:25:10.822Z,15.86
2023-04-09T13:27:47.050Z,15.81
2023-04-09T13:30:16.290Z,15.72
2023-04-09T13:33:01.683Z,15.62
2023-04-09T13:35:41.170Z,15.57
2023-04-09T13:38:13.237Z,15.55
2023-04-09T13:40:40.840Z,15.51
2023-04-09T13:43:08.550Z,15.45
2023-04-09T13:45:37.673Z,15.42
2023-04-09T13:48:06.531Z,15.38
2023-04-09T13:50:37.486Z,15.36
2023-04-09T13:53:05.590Z,15.32
2023-04-09T13:55:37.598Z,15.26
2023-04-09T13:58:04.683Z,15.21
2023-04-09T14:00:34.837Z,15.17
2023-04-09T14:03:04.328Z,15.14
2023-04-09T14:05:32.982Z,15.12
2023-04-09T14:08:01.603Z,15.10
2023-04-09T14:10:31.568Z,15.11
2023-04-09T14:12:59.014Z,15.13
2023-04-09T14:15:28.073Z,15.11
2023-04-09T14:17:55.723Z,15.04
2023-04-09T14:20:24.671Z,15.03
2023-04-09T14:22:53.352Z,15.00
2023-04-09T14:25:23.279Z,14.98
2023-04-09T14:27:50.206Z,14.98
2023-04-09T14:30:20.912Z,14.96
2023-04-09T14:33:06.702Z,14.95
2023-04-09T14:35:41.413Z,14.97
2023-04-09T14:38:14.234Z,14.98
2023-04-09T14:40:52.647Z,14.94
2023-04-09T14:43:19.577Z,14.93
2023-04-09T14:45:46.826Z,14.93
2023-04-09T14:48:13.857Z,14.90
2023-04-09T14:50:43.130Z,14.85
2023-04-09T14:53:10.308Z,14.83
2023-04-09T14:55:57.111Z,14.81
2023-04-09T14:58:28.408Z,14.79
2023-04-09T15:01:04.768Z,14.78
2023-04-09T15:03:32.809Z,14.76
2023-04-09T15:06:12.575Z,14.75
2023-04-09T15:08:39.688Z,14.75
2023-04-09T15:11:08.685Z,14.74
2023-04-09T15:13:44.538Z,14.72
2023-04-09T15:16:21.353Z,14.70
2023-04-09T15:18:51.419Z,14.65
2023-04-09T15:21:18.775Z,14.60
2023-04-09T15:23:46.350Z,14.58
2023-04-09T15:26:14.208Z,14.58
2023-04-09T15:28:48.604Z,14.56
2023-04-09T15:31:16.415Z,14.51
2023-04-09T15:33:56.447Z,14.48
2023-04-09T15:36:32.538Z,14.43
2023-04-09T15:39:06.965Z,14.39
2023-04-09T15:41:34.314Z,14.36
2023-04-09T15:44:12.596Z,14.29
2023-04-09T15:46:57.065Z,14.23
2023-04-09T15:49:27.508Z,14.21
2023-04-09T15:52:00.983Z,14.16
2023-04-09T15:54:28.996Z,14.13
2023-04-09T15:57:04.726Z,14.10
2023-04-09T15:59:34.142Z,14.04
2023-04-09T16:02:04.722Z,14.03
2023-04-09T16:04:32.467Z,14.02
2023-04-09T16:07:05.430Z,13.96
2023-04-09T16:09:52.236Z,13.95
2023-04-09T16:12:25.764Z,13.94
2023-04-09T16:15:07.573Z,13.90
2023-04-09T16:17:40.795Z,13.86
2023-04-09T16:20:09.265Z,13.85
2023-04-09T16:22:44.575Z,13.81
2023-04-09T16:25:12.076Z,13.79
2023-04-09T16:27:43.620Z,13.78
2023-04-09T16:30:12.165Z,13.75
2023-04-09T16:32:47.214Z,13.73
2023-04-09T16:35:15.131Z,13.69
2023-04-09T16:37:42.016Z,13.65
2023-04-09T16:40:09.075Z,13.61
2023-04-09T16:42:37.015Z,13.58
2023-04-09T16:45:04.951Z,13.55
2023-04-09T16:47:32.772Z,13.51
2023-04-09T16:50:01.585Z,13.50
2023-04-09T16:52:43.399Z,13.50
2023-04-09T16:55:14.294Z,13.50
2023-04-09T16:57:41.729Z,13.50
2023-04-09T17:00:16.897Z,13.46
2023-04-09T17:02:46.393Z,13.44
2023-04-09T17:05:16.041Z,13.41
2023-04-09T17:07:46.626Z,13.38
2023-04-09T17:10:22.937Z,13.35
2023-04-09T17:12:51.940Z,13.31
2023-04-09T17:15:21.597Z,13.28
2023-04-09T17:17:53.729Z,13.27
2023-04-09T17:20:25.377Z,13.24
2023-04-09T17:23:00.973Z,13.22
2023-04-09T17:25:31.782Z,13.18
2023-04-09T17:28:02.004Z,13.14
2023-04-09T17:30:33.365Z,13.11
2023-04-09T17:33:06.556Z,13.09
2023-04-09T17:35:53.753Z,13.07
2023-04-09T17:38:27.131Z,13.06
2023-04-09T17:40:54.237Z,13.03
2023-04-09T17:43:23.466Z,12.99
2023-04-09T17:45:52.691Z,12.93
2023-04-09T17:48:22.867Z,12.92
2023-04-09T17:50:58.975Z,12.89
2023-04-09T17:53:26.547Z,12.87
2023-04-09T17:55:56.430Z,12.85
2023-04-09T17:58:27.144Z,12.81
2023-04-09T18:00:55.753Z,12.76
2023-04-09T18:03:23.167Z,12.71
2023-04-09T18:05:50.817Z,12.66
2023-04-09T18:08:18.440Z,12.61
2023-04-09T18:11:01.570Z,12.56
2023-04-09T18:13:38.606Z,12.50
2023-04-09T18:16:12.458Z,12.47
2023-04-09T18:18:45.409Z,12.44
2023-04-09T18:21:17.852Z,12.38
2023-04-09T18:23:47.474Z,12.31
2023-04-09T18:26:15.906Z,12.22
2023-04-09T18:28:45.123Z,12.17
2023-04-09T18:31:32.023Z,12.10
2023-04-09T18:33:59.109Z,12.04
2023-04-09T18:36:28.327Z,11.98
2023-04-09T18:38:56.220Z,11.93
2023-04-09T18:41:24.655Z,11.90
2023-04-09T18:43:52.977Z,11.87
2023-04-09T18:46:21.036Z,11.83
2023-04-09T18:48:51.185Z,11.77
2023-04-09T18:51:23.966Z,11.72
2023-04-09T18:53:53.117Z,11.68
2023-04-09T18:56:22.380Z,11.62
2023-04-09T18:58:49.335Z,11.57
2023-04-09T19:01:17.631Z,11.53
2023-04-09T19:03:44.994Z,11.48
2023-04-09T19:06:14.620Z,11.44
2023-04-09T19:08:41.788Z,11.41
2023-04-09T19:11:08.863Z,11.38
2023-04-09T19:13:37.109Z,11.34
2023-04-09T19:16:04.832Z,11.29
2023-04-09T19:18:39.529Z,11.21
2023-04-09T19:21:08.260Z,11.16
2023-04-09T19:23:35.349Z,11.09
2023-04-09T19:26:05.620Z,11.03
2023-04-09T19:28:32.770Z,10.96
2023-04-09T19:31:02.091Z,10.88
2023-04-09T19:33:31.875Z,10.81
2023-04-09T19:35:59.431Z,10.76
2023-04-09T19:38:28.847Z,10.70
2023-04-09T19:40:55.900Z,10.64
2023-04-09T19:43:24.611Z,10.61
2023-04-09T19:45:52.001Z,10.58
2023-04-09T19:48:19.049Z,10.54
2023-04-09T19:50:46.844Z,10.51
2023-04-09T19:53:14.543Z,10.49
2023-04-09T19:55:42.168Z,10.45
2023-04-09T19:58:09.145Z,10.38
2023-04-09T20:00:36.378Z,10.33
2023-04-09T20:03:07.922Z,10.28
2023-04-09T20:05:35.952Z,10.23
2023-04-09T20:08:03.180Z,10.19
2023-04-09T20:10:39.822Z,10.15
2023-04-09T20:13:08.947Z,10.11
2023-04-09T20:15:36.023Z,10.06
2023-04-09T20:18:10.355Z,10.01
2023-04-09T20:20:38.589Z,9.97
2023-04-09T20:23:05.820Z,9.95
2023-04-09T20:25:36.820Z,9.92
2023-04-09T20:28:05.067Z,9.90
2023-04-09T20:30:32.277Z,9.87
2023-04-09T20:32:59.741Z,9.85
2023-04-09T20:35:27.389Z,9.82
2023-04-09T20:37:55.236Z,9.79
2023-04-09T20:40:22.614Z,9.76
2023-04-09T20:42:50.596Z,9.73
2023-04-09T20:45:20.804Z,9.72
2023-04-09T20:47:49.613Z,9.69
2023-04-09T20:50:16.612Z,9.66
2023-04-09T20:52:43.589Z,9.62
2023-04-09T20:55:10.937Z,9.59
2023-04-09T20:57:37.846Z,9.56
2023-04-09T21:00:05.519Z,9.53
2023-04-09T21:02:34.320Z,9.52
2023-04-09T21:07:42.859Z,9.44
2023-04-09T21:10:09.972Z,9.40
2023-04-09T21:12:45.487Z,9.35
2023-04-09T21:15:12.420Z,9.30
2023-04-09T21:17:39.568Z,9.25
2023-04-09T21:20:12.008Z,9.21
2023-04-09T21:22:39.020Z,9.19
2023-04-09T21:25:06.500Z,9.18
2023-04-09T21:27:33.717Z,9.16
2023-04-09T21:30:01.204Z,9.13
2023-04-09T21:32:28.785Z,9.09
2023-04-09T21:34:55.868Z,9.08
2023-04-09T21:38:27.736Z,9.01
2023-04-09T21:40:54.780Z,8.93
2023-04-09T21:43:22.232Z,8.88
2023-04-09T21:45:49.204Z,8.86
2023-04-09T21:48:16.742Z,8.82
2023-04-09T21:50:43.749Z,8.81
2023-04-09T21:53:15.648Z,8.80
2023-04-09T21:55:43.227Z,8.78
2023-04-09T21:58:12.151Z,8.75
2023-04-09T22:00:39.915Z,8.72
2023-04-09T22:03:07.168Z,8.70
2023-04-09T22:05:35.491Z,8.68
2023-04-09T22:08:03.769Z,8.65
2023-04-09T22:10:30.905Z,8.60
2023-04-09T22:13:09.631Z,8.55
2023-04-09T22:15:37.882Z,8.50
2023-04-09T22:18:05.085Z,8.47
2023-04-09T22:20:36.605Z,8.43
2023-04-09T22:23:05.390Z,8.38
2023-04-09T22:25:35.209Z,8.37
2023-04-09T22:28:11.735Z,8.38
2023-04-09T22:30:41.277Z,8.41
2023-04-09T22:33:09.372Z,8.43
2023-04-09T22:35:36.660Z,8.46
2023-04-09T22:38:04.336Z,8.49
2023-04-09T22:40:31.415Z,8.49
2023-04-09T22:42:58.666Z,8.45
2023-04-09T22:45:28.088Z,8.43
2023-04-09T22:47:55.903Z,8.41
2023-04-09T22:50:23.650Z,8.40
2023-04-09T22:52:51.696Z,8.39
2023-04-09T22:55:19.603Z,8.39
2023-04-09T22:57:47.291Z,8.37
2023-04-09T23:00:15.445Z,8.34
2023-04-09T23:02:43.345Z,8.31
2023-04-09T23:05:11.448Z,8.29
2023-04-09T23:07:38.967Z,8.29
2023-04-09T23:10:07.170Z,8.29
2023-04-09T23:12:34.706Z,8.27
2023-04-09T23:15:02.126Z,8.27
2023-04-09T23:17:29.518Z,8.24
2023-04-09T23:19:58.125Z,8.20
2023-04-09T23:22:26.408Z,8.18
2023-04-09T23:24:53.612Z,8.17
2023-04-09T23:27:21.348Z,8.15
2023-04-09T23:29:48.532Z,8.12
2023-04-09T23:32:16.007Z,8.11
2023-04-09T23:34:43.573Z,8.11
2023-04-09T23:37:10.973Z,8.09
2023-04-09T23:39:46.925Z,8.09
2023-04-09T23:42:14.722Z,8.07
2023-04-09T23:44:44.265Z,8.05
2023-04-09T23:47:12.250Z,8.03
2023-04-09T23:49:41.080Z,7.99
2023-04-09T23:52:08.847Z,7.95
2023-04-09T23:54:36.109Z,7.92
2023-04-09T23:57:04.170Z,7.88
2023-04-09T23:59:35.587Z,7.85
